Lake City, CO

2:33 PM MST on January 31, 2015 (GMT -0700)
Lake City Heights | Change Station
CLOSE
Current Station
Personal Weather Station
Location: Lake City, CO
Elevation: 8858 ft
Nearby Weather Stations

Elev 8858 ft 38.02 °N, 107.31 °W | Updated 6 seconds ago

Overcast
Overcast
35.8 °F
Feels Like 33 °F
N
3.6
Wind Variable Wind from North
Gusts 11.0 mph

Today
High -- | Low -- °F
--% Chance of Precip.
Yesterday
High -- | Low -- °F
Precip. -- in
7:14 AM 5:31 PM
Waxing Gibbous, 91% visible
Pressure 29.90 in
Visibility 4.0 miles
Clouds Scattered Clouds 2000 ft
Mostly Cloudy 2800 ft
Overcast 3800 ft
Windchill 33 °F
Dew Point 18 °F
Humidity 49%
Rainfall 0.00 in
Snow Depth Not available.
UV 1 out of 12
Pollen 1.30 out of 12
Air Quality Not available.
Flu Activity Not available.
METAR KTEX 312055Z AUTO 27012KT 4SM -SN SCT020 BKN028 OVC038 M01/M01 A2990 RMK AO2 T10061008

More Conditions Fewer Conditions

Pressure 29.90 in
Visibility 4.0 miles
Clouds Scattered Clouds 2000 ft
Mostly Cloudy 2800 ft
Overcast 3800 ft
Windchill 33 °F
Dew Point 18 °F
Humidity 49%
Rainfall 0.00 in
Snow Depth Not available.
UV 1 out of 12
Pollen 1.30 out of 12
Air Quality Not available.
Flu Activity Not available.
METAR KTEX 312055Z AUTO 27012KT 4SM -SN SCT020 BKN028 OVC038 M01/M01 A2990 RMK AO2 T10061008

More Conditions Fewer Conditions

10-Day Weather Forecast

Almanac

Astronomy

Jan. 31, 2015 Rise Set
Actual Time
Civil Twilight
Nautical Twilight
Astronomical Twilight
Moon
Length of Visible Light
Length of Day
Tomorrow will be .
, % of the Moon is Illuminated

Today's Extremes

State Highs State Lows

Community

WunderPhotos

Upload Photos

1,792,210 photos uploaded!

WunderBlogs® & News

Nearby

Air Quality

  Air Quality AQ Index Pollutant
Not available.

Snow Depth

Station Depth Elevation

Earthquake Activity

City Distance Mag. Time & Date
Minimum magnitude displayed is 2.5.

Coastal Water Temperatures

Place Temperature

Nearby Weather Stations